Time;durP1;ratioP1;P1;durP2;ratioP2;P2;SDS_P1;SDS_P2;PMS_P1;PMS_P2;Temp;Humidity;BMP_temperature;BMP_pressure;BME280_temperature;BME280_humidity;BME280_pressure;Samples;Min_cycle;Max_cycle;Signal;HPM_P1;HPM_P2
2023/10/29 00:01:23;;;;;;;6.93;5.57;;;11.20;99.90;;;;;;5083076;28;20044;-28
2023/10/29 00:03:48;;;;;;;7.38;6.38;;;11.20;99.90;;;;;;5089240;28;20420;-32
2023/10/29 00:06:14;;;;;;;7.80;6.07;;;11.30;99.90;;;;;;5063122;28;20050;-29
2023/10/29 00:08:39;;;;;;;9.95;6.32;;;11.30;99.90;;;;;;5080168;28;20044;-28
2023/10/29 00:11:05;;;;;;;6.68;5.80;;;11.20;99.90;;;;;;5060491;28;20036;-28
2023/10/29 00:13:31;;;;;;;6.60;5.88;;;11.30;99.90;;;;;;5064995;28;20032;-28
2023/10/29 00:15:56;;;;;;;6.95;5.90;;;11.30;99.90;;;;;;5067986;28;20040;-28
2023/10/29 00:18:22;;;;;;;6.80;6.10;;;11.30;99.90;;;;;;5075062;28;20151;-28
2023/10/29 00:20:48;;;;;;;6.55;5.82;;;11.30;99.90;;;;;;5087037;28;20047;-28
2023/10/29 00:23:13;;;;;;;6.90;6.05;;;11.30;99.90;;;;;;5088513;28;20058;-28
2023/10/29 00:25:39;;;;;;;7.13;5.50;;;11.30;99.90;;;;;;5063995;28;20144;-28
2023/10/29 00:28:05;;;;;;;6.70;5.82;;;11.40;99.90;;;;;;5087650;28;20047;-29
2023/10/29 00:30:31;;;;;;;7.88;5.88;;;11.40;99.90;;;;;;5087250;28;20445;-28
2023/10/29 00:32:56;;;;;;;7.72;5.25;;;11.40;99.90;;;;;;5097395;28;20051;-29
2023/10/29 00:35:22;;;;;;;6.07;4.80;;;11.40;99.90;;;;;;5056248;28;20032;-28
2023/10/29 00:37:48;;;;;;;7.88;4.60;;;11.50;99.90;;;;;;5064742;28;20134;-30
2023/10/29 00:40:14;;;;;;;5.80;5.13;;;11.50;99.90;;;;;;5077821;28;20111;-28
2023/10/29 00:42:40;;;;;;;6.90;4.90;;;11.50;99.90;;;;;;5061457;28;20102;-28
2023/10/29 00:45:06;;;;;;;4.93;4.45;;;11.60;99.90;;;;;;5080655;28;20094;-29
2023/10/29 00:47:32;;;;;;;8.13;4.90;;;11.60;99.90;;;;;;5062803;28;20081;-29
2023/10/29 00:49:58;;;;;;;6.28;4.65;;;11.60;99.90;;;;;;5074954;28;20705;-29
2023/10/29 00:52:24;;;;;;;7.00;4.70;;;11.70;99.90;;;;;;5078587;28;20031;-28
2023/10/29 00:54:50;;;;;;;4.78;4.30;;;11.70;99.90;;;;;;5055220;28;20036;-30
2023/10/29 00:57:16;;;;;;;4.80;4.30;;;11.70;99.90;;;;;;5064162;28;20044;-28
2023/10/29 00:59:42;;;;;;;4.90;4.40;;;11.70;99.90;;;;;;5075825;28;20049;-28
2023/10/29 01:02:08;;;;;;;4.70;4.30;;;11.70;99.90;;;;;;5078329;28;20123;-28
2023/10/29 01:04:36;;;;;;;5.18;4.40;;;11.80;99.90;;;;;;5062974;28;20462;-29
2023/10/29 01:07:02;;;;;;;4.97;4.57;;;11.80;99.90;;;;;;5081701;28;20145;-28
2023/10/29 01:09:29;;;;;;;4.95;4.15;;;11.80;99.90;;;;;;5062118;28;20510;-28
2023/10/29 01:11:57;;;;;;;4.63;4.10;;;11.90;99.90;;;;;;5062457;28;20049;-29
2023/10/29 01:14:23;;;;;;;5.43;3.95;;;11.80;99.90;;;;;;5045119;28;20067;-28
2023/10/29 01:16:49;;;;;;;5.22;4.47;;;11.80;99.90;;;;;;5084098;28;20043;-28
2023/10/29 01:19:15;;;;;;;4.60;4.13;;;11.80;99.90;;;;;;5081188;28;20570;-30
2023/10/29 01:21:41;;;;;;;4.45;4.00;;;11.90;99.90;;;;;;5083576;28;20410;-30
2023/10/29 01:24:08;;;;;;;6.13;4.50;;;11.90;99.90;;;;;;5078597;28;20040;-28
2023/10/29 01:26:34;;;;;;;4.72;3.60;;;11.90;99.90;;;;;;5061670;28;20045;-30
2023/10/29 01:28:59;;;;;;;4.65;3.88;;;11.90;99.90;;;;;;5082381;28;20039;-28
2023/10/29 01:31:25;;;;;;;7.18;4.30;;;12.00;99.90;;;;;;5076108;28;20111;-29
2023/10/29 01:33:51;;;;;;;5.30;4.00;;;12.00;99.90;;;;;;5099177;28;20044;-29
2023/10/29 01:36:16;;;;;;;4.60;3.75;;;12.10;99.90;;;;;;5081831;28;20075;-30
2023/10/29 01:38:42;;;;;;;4.55;3.92;;;12.10;99.90;;;;;;5081259;28;20051;-29
2023/10/29 01:41:08;;;;;;;4.53;3.47;;;12.10;99.90;;;;;;5084737;28;20114;-28
2023/10/29 01:43:34;;;;;;;5.68;3.92;;;12.10;99.90;;;;;;5063640;28;20123;-29
2023/10/29 01:45:59;;;;;;;4.00;3.60;;;12.10;99.90;;;;;;5080112;28;20813;-30
2023/10/29 01:48:25;;;;;;;4.15;3.33;;;12.10;99.90;;;;;;5062552;28;20165;-29
2023/10/29 01:50:51;;;;;;;4.40;3.20;;;12.10;99.90;;;;;;5059353;28;20224;-30
2023/10/29 01:53:17;;;;;;;3.70;3.40;;;12.20;99.90;;;;;;5094449;28;20044;-29
2023/10/29 01:55:42;;;;;;;4.78;3.55;;;12.20;99.90;;;;;;5063253;28;20044;-29
2023/10/29 01:58:08;;;;;;;4.85;3.05;;;12.20;99.90;;;;;;5076584;28;20041;-28
2023/10/29 02:00:33;;;;;;;4.10;2.92;;;12.20;99.90;;;;;;5081761;28;20069;-29
2023/10/29 02:02:59;;;;;;;3.78;2.85;;;12.20;99.90;;;;;;5082336;28;20040;-29
2023/10/29 02:05:25;;;;;;;5.68;3.25;;;12.20;99.90;;;;;;5081476;28;20048;-29
2023/10/29 02:07:50;;;;;;;3.58;3.10;;;12.20;99.90;;;;;;5066420;28;20045;-28
2023/10/29 02:10:16;;;;;;;3.38;3.03;;;12.20;99.90;;;;;;5066264;28;20043;-29
2023/10/29 02:12:42;;;;;;;5.57;2.60;;;12.20;99.90;;;;;;5057367;28;20048;-30
2023/10/29 02:15:08;;;;;;;4.88;2.83;;;12.20;99.90;;;;;;5080616;28;20127;-29
2023/10/29 02:17:33;;;;;;;6.00;3.25;;;12.20;99.90;;;;;;5062872;28;20040;-29
2023/10/29 02:19:59;;;;;;;3.42;3.03;;;12.20;99.90;;;;;;5063546;28;20032;-28
2023/10/29 02:22:28;;;;;;;4.93;2.63;;;12.20;99.90;;;;;;5076028;28;20033;-30
2023/10/29 02:24:54;;;;;;;2.97;2.60;;;12.20;99.90;;;;;;5077971;28;20053;-29
2023/10/29 02:27:20;;;;;;;2.55;2.35;;;12.20;99.90;;;;;;5075128;28;20136;-29
2023/10/29 02:29:45;;;;;;;3.92;2.60;;;12.20;99.90;;;;;;5059444;28;20041;-30
2023/10/29 02:32:11;;;;;;;3.92;3.20;;;12.20;99.90;;;;;;5076280;28;20532;-28
2023/10/29 02:34:37;;;;;;;5.80;2.65;;;12.30;99.90;;;;;;5077770;28;20158;-29
2023/10/29 02:37:02;;;;;;;4.30;2.65;;;12.30;99.90;;;;;;5062378;28;20048;-29
2023/10/29 02:39:28;;;;;;;3.15;2.38;;;12.30;99.90;;;;;;5066849;28;20131;-29
2023/10/29 02:41:54;;;;;;;3.15;2.22;;;12.40;99.90;;;;;;5078113;28;20076;-29
2023/10/29 02:44:19;;;;;;;3.05;2.25;;;12.40;99.90;;;;;;5080500;28;20044;-29
2023/10/29 02:46:45;;;;;;;2.40;2.20;;;12.40;99.90;;;;;;5082805;28;20119;-29
2023/10/29 02:49:11;;;;;;;5.20;2.20;;;12.40;99.90;;;;;;5081937;28;20075;-30
2023/10/29 02:51:36;;;;;;;3.85;2.45;;;12.50;99.90;;;;;;5063404;28;20037;-29
2023/10/29 02:54:02;;;;;;;5.05;2.10;;;12.50;99.90;;;;;;5088563;28;20037;-30
2023/10/29 02:56:30;;;;;;;4.75;2.67;;;12.50;99.90;;;;;;5093055;28;20384;-29
2023/10/29 02:58:56;;;;;;;3.65;2.22;;;12.50;99.90;;;;;;5079674;28;20044;-30
2023/10/29 03:01:21;;;;;;;3.38;1.95;;;12.50;99.90;;;;;;5080423;28;20051;-30
2023/10/29 03:03:47;;;;;;;3.33;1.98;;;12.50;99.90;;;;;;5077421;28;20531;-29
2023/10/29 03:06:13;;;;;;;3.13;1.95;;;12.50;99.90;;;;;;5080608;28;20114;-30
2023/10/29 03:08:39;;;;;;;3.80;2.08;;;12.50;99.90;;;;;;5064094;28;20052;-29
2023/10/29 03:11:05;;;;;;;3.72;2.20;;;12.50;99.90;;;;;;5069437;28;20479;-29
2023/10/29 03:13:31;;;;;;;2.90;2.35;;;12.50;99.90;;;;;;5079562;28;20043;-29
2023/10/29 03:15:57;;;;;;;3.67;1.90;;;12.60;99.90;;;;;;5068960;28;20068;-29
2023/10/29 03:18:22;;;;;;;4.13;2.13;;;12.60;99.90;;;;;;5085798;28;20308;-29
2023/10/29 03:20:48;;;;;;;2.72;1.88;;;12.60;99.90;;;;;;5087212;28;20079;-29
2023/10/29 03:23:14;;;;;;;2.45;2.10;;;12.60;99.90;;;;;;5081817;28;20136;-29
2023/10/29 03:25:40;;;;;;;3.08;1.80;;;12.70;99.90;;;;;;5086784;28;20094;-29
2023/10/29 03:28:06;;;;;;;3.38;2.00;;;12.70;99.90;;;;;;5072511;28;20039;-28
2023/10/29 03:30:31;;;;;;;3.30;1.60;;;12.70;99.90;;;;;;5080953;28;20072;-29
2023/10/29 03:32:57;;;;;;;3.50;1.80;;;12.80;99.90;;;;;;5088524;28;20118;-29
2023/10/29 03:35:26;;;;;;;3.92;1.95;;;12.80;99.90;;;;;;5067513;28;20513;-29
2023/10/29 03:37:51;;;;;;;2.85;1.50;;;12.80;99.90;;;;;;5076669;28;20495;-29
2023/10/29 03:40:17;;;;;;;4.03;1.80;;;12.80;99.90;;;;;;5085058;28;20036;-29
2023/10/29 03:42:43;;;;;;;2.38;1.60;;;12.80;99.90;;;;;;5068925;28;20457;-29
2023/10/29 03:45:09;;;;;;;4.28;1.98;;;12.90;99.90;;;;;;5070603;28;20051;-28
2023/10/29 03:47:35;;;;;;;2.78;1.55;;;12.90;99.90;;;;;;5080605;28;20044;-30
2023/10/29 03:50:02;;;;;;;4.20;1.63;;;12.90;99.90;;;;;;5085507;28;20047;-30
2023/10/29 03:52:27;;;;;;;2.67;2.20;;;12.90;99.90;;;;;;5061095;28;20403;-28
2023/10/29 03:54:53;;;;;;;2.10;1.90;;;12.90;99.90;;;;;;5062833;28;20044;-28
2023/10/29 03:57:19;;;;;;;6.75;1.73;;;12.80;99.90;;;;;;5066418;28;20052;-29
2023/10/29 03:59:44;;;;;;;2.30;1.70;;;12.80;99.90;;;;;;5086895;28;20384;-29
2023/10/29 04:02:10;;;;;;;3.33;1.42;;;12.80;99.90;;;;;;5084152;28;20039;-29
2023/10/29 04:04:36;;;;;;;2.75;1.90;;;12.80;99.90;;;;;;5076868;28;20044;-29
2023/10/29 04:07:02;;;;;;;4.55;1.80;;;12.90;99.90;;;;;;5062506;28;20044;-29
2023/10/29 04:09:28;;;;;;;2.92;1.63;;;13.00;99.90;;;;;;5081809;28;20443;-30
2023/10/29 04:11:54;;;;;;;1.67;1.58;;;13.00;99.90;;;;;;5078693;28;20044;-29
2023/10/29 04:14:20;;;;;;;2.53;1.40;;;13.10;99.90;;;;;;5060248;28;20119;-29
2023/10/29 04:16:46;;;;;;;1.92;1.20;;;13.10;99.90;;;;;;5078642;28;20119;-28
2023/10/29 04:19:11;;;;;;;5.13;1.38;;;13.10;99.90;;;;;;5068246;28;20051;-29
2023/10/29 04:21:37;;;;;;;2.72;1.10;;;13.10;99.90;;;;;;5085070;28;20044;-28
2023/10/29 04:24:03;;;;;;;2.47;1.23;;;13.10;99.90;;;;;;5083181;28;20088;-30
2023/10/29 04:26:30;;;;;;;2.00;1.40;;;13.10;99.90;;;;;;5080496;28;20132;-30
2023/10/29 04:28:56;;;;;;;2.80;1.33;;;13.10;99.90;;;;;;5059326;28;20041;-30
2023/10/29 04:31:22;;;;;;;2.60;1.35;;;13.10;99.90;;;;;;5078699;28;20040;-28
2023/10/29 04:33:48;;;;;;;1.83;1.13;;;13.20;99.90;;;;;;5060400;28;21038;-30
2023/10/29 04:36:24;;;;;;;2.03;1.20;;;13.20;99.90;;;;;;5083182;28;20044;-29
2023/10/29 04:38:51;;;;;;;2.63;1.25;;;13.10;99.90;;;;;;5075548;28;20048;-29
2023/10/29 04:41:17;;;;;;;2.47;1.58;;;13.10;99.90;;;;;;5079837;28;20063;-30
2023/10/29 04:43:43;;;;;;;2.17;1.20;;;13.10;99.90;;;;;;5078169;28;20048;-29
2023/10/29 04:46:13;;;;;;;2.53;1.10;;;13.20;99.90;;;;;;5077974;28;20373;-29
2023/10/29 04:48:41;;;;;;;2.42;1.25;;;13.20;99.90;;;;;;5078255;28;20444;-29
2023/10/29 04:51:07;;;;;;;2.45;1.25;;;13.20;99.90;;;;;;5069680;28;20613;-29
2023/10/29 04:53:36;;;;;;;1.30;1.17;;;13.20;99.90;;;;;;5081691;28;20050;-29
2023/10/29 04:56:03;;;;;;;2.40;1.20;;;13.20;99.90;;;;;;5058724;28;20044;-30
2023/10/29 04:58:31;;;;;;;2.28;1.20;;;13.20;99.90;;;;;;5078750;28;20123;-30
2023/10/29 05:00:57;;;;;;;1.80;1.25;;;13.20;99.90;;;;;;5082249;28;20048;-29
2023/10/29 05:03:23;;;;;;;1.58;1.00;;;13.20;99.90;;;;;;5065588;28;20039;-29
2023/10/29 05:05:50;;;;;;;2.45;1.10;;;13.20;99.90;;;;;;5074385;28;20457;-29
2023/10/29 05:08:15;;;;;;;2.00;1.20;;;13.20;99.90;;;;;;5067675;28;20035;-29
2023/10/29 05:10:43;;;;;;;3.03;1.20;;;13.20;99.90;;;;;;5078173;28;20510;-30
2023/10/29 05:13:09;;;;;;;2.30;1.25;;;13.20;99.90;;;;;;5072374;28;20045;-29
2023/10/29 05:15:35;;;;;;;2.72;1.25;;;13.10;99.90;;;;;;5064533;28;20051;-29
2023/10/29 05:18:00;;;;;;;1.40;1.13;;;13.20;99.90;;;;;;5078947;28;20044;-31
2023/10/29 05:20:26;;;;;;;2.15;1.00;;;13.10;99.90;;;;;;5080203;28;20043;-29
2023/10/29 05:22:53;;;;;;;1.27;1.17;;;13.20;99.90;;;;;;5079793;28;20067;-29
2023/10/29 05:25:18;;;;;;;2.38;1.20;;;13.10;99.90;;;;;;5078800;28;20048;-30
2023/10/29 05:27:51;;;;;;;3.67;1.00;;;13.10;99.90;;;;;;5079007;28;20125;-28
2023/10/29 05:30:20;;;;;;;2.60;0.93;;;13.10;99.90;;;;;;5076905;28;20079;-32
2023/10/29 05:32:45;;;;;;;1.40;0.73;;;13.10;99.90;;;;;;5044865;28;20585;-30
2023/10/29 05:35:11;;;;;;;1.15;0.80;;;13.10;99.90;;;;;;5064717;28;20063;-28
2023/10/29 05:37:37;;;;;;;4.43;1.10;;;13.10;99.90;;;;;;5058332;28;21509;-29
2023/10/29 05:40:07;;;;;;;1.23;0.73;;;13.10;99.90;;;;;;5074599;28;20036;-30
2023/10/29 05:42:36;;;;;;;2.13;0.88;;;13.10;99.90;;;;;;5079875;28;20032;-29
2023/10/29 05:45:06;;;;;;;0.75;0.75;;;13.10;99.90;;;;;;5079482;28;20038;-31
2023/10/29 05:47:32;;;;;;;3.22;0.90;;;13.10;99.90;;;;;;5078683;28;20135;-29
2023/10/29 05:49:58;;;;;;;2.90;1.00;;;13.10;99.90;;;;;;5059994;28;20787;-29
2023/10/29 05:52:23;;;;;;;3.28;1.00;;;13.20;99.90;;;;;;5060910;28;20036;-28
2023/10/29 05:54:50;;;;;;;2.70;0.90;;;13.20;99.90;;;;;;5058409;28;20040;-30
2023/10/29 05:57:16;;;;;;;2.78;0.90;;;13.20;99.90;;;;;;5058353;28;20048;-31
2023/10/29 05:59:42;;;;;;;2.15;0.80;;;13.20;99.90;;;;;;5083132;28;20040;-30
2023/10/29 06:02:09;;;;;;;2.72;1.00;;;13.30;99.90;;;;;;5065300;28;20044;-31
2023/10/29 06:04:35;;;;;;;1.77;1.20;;;13.30;99.90;;;;;;5083863;28;20127;-32
2023/10/29 06:07:01;;;;;;;1.73;0.90;;;13.30;99.90;;;;;;5075606;28;20633;-29
2023/10/29 06:09:26;;;;;;;1.40;1.02;;;13.30;99.90;;;;;;5081540;28;20036;-30
2023/10/29 06:11:52;;;;;;;3.63;0.80;;;13.30;99.90;;;;;;5056618;28;20059;-30
2023/10/29 06:14:18;;;;;;;1.83;0.88;;;13.30;99.90;;;;;;5081144;28;20037;-30
2023/10/29 06:16:44;;;;;;;2.25;0.90;;;13.40;99.90;;;;;;5085341;28;20535;-28
2023/10/29 06:19:10;;;;;;;1.88;0.75;;;13.40;99.90;;;;;;5059346;28;20047;-30
2023/10/29 06:21:35;;;;;;;2.08;1.00;;;13.40;99.90;;;;;;5076478;28;20059;-30
2023/10/29 06:24:01;;;;;;;0.80;0.80;;;13.30;99.90;;;;;;5064567;28;20036;-29
2023/10/29 06:26:27;;;;;;;1.35;0.75;;;13.30;99.90;;;;;;5081185;28;20043;-29
2023/10/29 06:28:52;;;;;;;3.58;0.93;;;13.30;99.90;;;;;;5078967;28;20040;-29
2023/10/29 06:31:18;;;;;;;1.50;0.73;;;13.30;99.90;;;;;;5064570;28;20032;-29
2023/10/29 06:33:44;;;;;;;1.15;1.00;;;13.20;99.90;;;;;;5080263;28;20783;-29
2023/10/29 06:36:10;;;;;;;1.75;1.05;;;13.20;99.90;;;;;;5082285;28;20047;-29
2023/10/29 06:38:36;;;;;;;1.95;0.90;;;13.20;99.90;;;;;;5081821;28;20048;-29
2023/10/29 06:41:02;;;;;;;2.00;1.00;;;13.20;99.90;;;;;;5074471;28;20040;-30
2023/10/29 06:43:28;;;;;;;2.55;0.80;;;13.20;99.90;;;;;;5083996;28;20483;-29
2023/10/29 06:45:54;;;;;;;0.95;0.70;;;13.10;99.90;;;;;;5062618;28;20119;-30
2023/10/29 06:48:20;;;;;;;3.22;1.05;;;13.10;99.90;;;;;;5055663;28;20101;-31
2023/10/29 06:50:47;;;;;;;2.30;1.10;;;13.10;99.90;;;;;;5083845;28;20055;-32
2023/10/29 06:53:14;;;;;;;1.88;0.85;;;13.10;99.90;;;;;;5069204;28;20448;-29
2023/10/29 06:55:41;;;;;;;2.30;0.98;;;13.10;99.90;;;;;;5081497;28;20132;-31
2023/10/29 06:58:06;;;;;;;1.95;0.80;;;13.10;99.90;;;;;;5079634;28;20453;-33
2023/10/29 07:00:45;;;;;;;1.75;0.95;;;13.10;99.90;;;;;;5093140;28;20040;-31
2023/10/29 07:03:11;;;;;;;3.17;1.17;;;13.20;99.90;;;;;;5059961;28;20048;-32
2023/10/29 07:05:37;;;;;;;2.63;0.95;;;13.20;99.90;;;;;;5087833;28;20074;-30
2023/10/29 07:08:03;;;;;;;4.45;1.30;;;13.20;99.90;;;;;;5072465;28;20037;-31
2023/10/29 07:10:28;;;;;;;1.80;1.08;;;13.20;99.90;;;;;;5080621;28;20048;-31
2023/10/29 07:12:54;;;;;;;3.80;0.85;;;13.40;99.90;;;;;;5060207;28;20093;-32
2023/10/29 07:15:20;;;;;;;1.63;0.88;;;13.40;99.90;;;;;;5078146;28;20114;-30
2023/10/29 07:18:14;;;;;;;3.33;1.05;;;13.40;99.90;;;;;;5078590;28;20064;-31
2023/10/29 07:20:44;;;;;;;1.25;0.70;;;13.40;99.90;;;;;;5080422;28;20098;-33
2023/10/29 07:23:10;;;;;;;2.03;1.23;;;13.40;99.90;;;;;;5077036;28;20040;-32
2023/10/29 07:25:36;;;;;;;2.83;0.98;;;13.40;99.90;;;;;;5068932;28;20134;-31
2023/10/29 07:28:02;;;;;;;2.63;1.30;;;13.40;99.90;;;;;;5084137;28;20124;-30
2023/10/29 07:30:27;;;;;;;5.93;1.45;;;13.40;99.90;;;;;;5057646;28;20396;-32
2023/10/29 07:32:53;;;;;;;2.33;1.20;;;13.40;99.90;;;;;;5083091;28;20566;-31
2023/10/29 07:35:20;;;;;;;2.78;1.15;;;13.40;99.90;;;;;;5063069;28;20151;-32
2023/10/29 07:37:46;;;;;;;1.83;1.00;;;13.30;99.90;;;;;;5085860;28;20052;-31
2023/10/29 07:40:12;;;;;;;3.25;1.30;;;13.30;99.90;;;;;;5078192;28;20036;-31
2023/10/29 07:42:37;;;;;;;2.20;1.02;;;13.40;99.90;;;;;;5082683;28;20123;-30
2023/10/29 07:45:04;;;;;;;2.38;1.13;;;13.40;99.90;;;;;;5084344;28;20579;-32
2023/10/29 07:47:31;;;;;;;1.77;1.00;;;13.50;99.90;;;;;;5063732;28;20040;-32
2023/10/29 07:49:57;;;;;;;2.30;0.98;;;13.60;99.90;;;;;;5085734;28;20048;-31
2023/10/29 07:52:27;;;;;;;2.80;1.30;;;13.60;99.90;;;;;;5080460;28;20028;-30
2023/10/29 07:54:53;;;;;;;1.17;0.70;;;13.60;99.90;;;;;;5080983;28;20040;-30
2023/10/29 07:57:18;;;;;;;3.53;1.10;;;13.50;99.90;;;;;;5082001;27;20488;-32
2023/10/29 07:59:44;;;;;;;3.63;1.00;;;13.50;99.90;;;;;;5071651;28;20040;-31
2023/10/29 08:02:10;;;;;;;4.55;0.95;;;13.60;99.90;;;;;;5061794;28;20040;-31
2023/10/29 08:04:35;;;;;;;2.67;1.23;;;13.70;99.90;;;;;;5062100;28;20041;-32
2023/10/29 08:07:01;;;;;;;2.08;0.73;;;13.80;99.90;;;;;;5087498;28;20128;-31
2023/10/29 08:09:27;;;;;;;3.13;1.63;;;13.90;99.90;;;;;;5063554;28;20040;-32
2023/10/29 08:11:53;;;;;;;2.95;0.98;;;14.20;99.90;;;;;;5081996;28;20036;-33
2023/10/29 08:14:18;;;;;;;2.08;0.93;;;14.60;99.90;;;;;;5062350;28;20040;-29
2023/10/29 08:16:44;;;;;;;3.95;0.90;;;15.00;99.90;;;;;;5081306;28;20048;-32
2023/10/29 08:19:10;;;;;;;4.95;1.00;;;15.30;99.90;;;;;;5067862;28;20033;-30
2023/10/29 08:21:36;;;;;;;1.98;1.17;;;15.60;99.90;;;;;;5062395;28;20071;-31
2023/10/29 08:24:02;;;;;;;2.63;1.00;;;15.80;99.90;;;;;;5079913;28;20044;-33
2023/10/29 08:26:28;;;;;;;3.03;0.75;;;16.10;99.90;;;;;;5084176;28;20060;-33
2023/10/29 08:28:54;;;;;;;1.00;0.70;;;16.20;99.90;;;;;;5060814;28;20568;-32
2023/10/29 08:31:21;;;;;;;1.50;0.85;;;16.50;99.90;;;;;;5065418;28;20047;-31
2023/10/29 08:33:47;;;;;;;2.80;1.00;;;16.50;99.90;;;;;;5075069;28;20056;-34
2023/10/29 08:36:16;;;;;;;2.40;0.70;;;16.70;99.90;;;;;;5084039;28;20051;-32
2023/10/29 08:38:42;;;;;;;2.45;0.60;;;16.80;99.90;;;;;;5088379;28;20047;-31
2023/10/29 08:41:17;;;;;;;3.17;1.00;;;16.90;99.90;;;;;;5080792;28;20040;-31
2023/10/29 08:43:44;;;;;;;2.42;1.00;;;17.00;99.90;;;;;;5079949;28;20143;-31
2023/10/29 08:46:10;;;;;;;2.58;0.75;;;17.00;99.90;;;;;;5075824;28;20155;-32
2023/10/29 08:48:36;;;;;;;1.77;0.98;;;17.00;99.90;;;;;;5083240;28;20037;-32
2023/10/29 08:51:02;;;;;;;1.67;0.65;;;17.10;99.90;;;;;;5086266;28;20516;-33
2023/10/29 08:53:27;;;;;;;2.78;1.10;;;17.30;99.90;;;;;;5060457;28;20040;-31
2023/10/29 08:55:53;;;;;;;1.17;0.80;;;17.30;99.90;;;;;;5084115;28;20035;-30
2023/10/29 08:58:20;;;;;;;3.42;1.20;;;17.60;99.90;;;;;;5081195;28;20040;-31
2023/10/29 09:00:46;;;;;;;1.95;1.20;;;17.50;99.90;;;;;;5086102;28;20040;-32
2023/10/29 09:03:15;;;;;;;5.20;0.95;;;17.40;99.90;;;;;;5059556;28;20473;-30
2023/10/29 09:05:42;;;;;;;1.80;0.80;;;17.20;99.90;;;;;;5077509;28;20132;-32
2023/10/29 09:08:08;;;;;;;3.85;1.02;;;17.00;99.90;;;;;;5079730;28;20091;-31
2023/10/29 09:10:34;;;;;;;4.28;1.33;;;16.90;99.90;;;;;;5083683;28;20099;-32
2023/10/29 09:12:59;;;;;;;6.20;1.65;;;16.80;99.90;;;;;;5078818;28;20082;-31
2023/10/29 09:15:25;;;;;;;2.67;1.20;;;16.80;99.90;;;;;;5080184;28;20043;-33
2023/10/29 09:17:52;;;;;;;3.83;1.30;;;16.80;99.90;;;;;;5079834;28;20032;-31
2023/10/29 09:20:18;;;;;;;3.65;1.35;;;16.70;99.90;;;;;;5075913;28;20047;-32
2023/10/29 09:22:43;;;;;;;4.20;1.35;;;16.50;99.90;;;;;;5067038;28;20032;-32
2023/10/29 09:25:09;;;;;;;4.70;1.10;;;16.20;99.90;;;;;;5082462;28;20051;-31
2023/10/29 09:27:35;;;;;;;4.15;1.33;;;16.40;99.90;;;;;;5077912;28;20098;-32
2023/10/29 09:30:01;;;;;;;5.72;1.92;;;16.60;99.90;;;;;;5082883;28;20454;-31
2023/10/29 09:32:27;;;;;;;5.88;1.17;;;16.40;99.90;;;;;;5067348;28;20112;-32
2023/10/29 09:34:53;;;;;;;4.00;1.38;;;15.90;99.90;;;;;;5075393;28;20067;-32
2023/10/29 09:37:21;;;;;;;7.00;1.60;;;15.70;99.90;;;;;;5065512;28;20048;-31
2023/10/29 09:39:47;;;;;;;2.85;1.20;;;15.80;99.90;;;;;;5061848;28;20044;-32
2023/10/29 09:42:17;;;;;;;5.75;1.40;;;16.20;99.90;;;;;;5055178;28;20089;-32
2023/10/29 09:44:47;;;;;;;5.47;1.40;;;16.60;99.90;;;;;;5073875;28;20034;-32
2023/10/29 09:47:17;;;;;;;3.72;1.40;;;16.80;99.90;;;;;;5057954;28;20056;-32
2023/10/29 09:49:43;;;;;;;5.15;1.40;;;16.90;99.90;;;;;;5076620;28;21198;-34
2023/10/29 09:52:09;;;;;;;3.83;1.50;;;16.90;99.90;;;;;;5061477;28;20036;-33
2023/10/29 09:54:39;;;;;;;4.78;1.38;;;16.90;99.90;;;;;;5076270;28;20046;-33
2023/10/29 09:57:06;;;;;;;4.45;1.42;;;17.00;99.90;;;;;;5075920;28;20055;-33
2023/10/29 09:59:32;;;;;;;7.13;1.45;;;16.80;99.90;;;;;;5072633;28;20388;-31
2023/10/29 10:01:58;;;;;;;6.00;1.60;;;16.40;99.90;;;;;;5078574;28;20492;-32
2023/10/29 10:04:24;;;;;;;7.10;1.42;;;16.30;99.90;;;;;;5063727;28;20098;-31
2023/10/29 10:06:51;;;;;;;4.75;1.45;;;16.20;99.90;;;;;;5059799;28;20508;-31
2023/10/29 10:09:17;;;;;;;5.25;1.50;;;16.00;99.90;;;;;;5058540;28;20052;-31
2023/10/29 10:11:43;;;;;;;7.13;1.55;;;15.90;99.90;;;;;;5056795;28;20048;-31
2023/10/29 10:14:25;;;;;;;4.32;1.33;;;15.70;99.90;;;;;;5078821;28;20048;-32
2023/10/29 10:17:09;;;;;;;4.90;1.40;;;15.60;99.90;;;;;;5075954;28;20088;-31
2023/10/29 10:19:36;;;;;;;4.47;1.30;;;15.40;99.90;;;;;;5066315;28;20094;-32
2023/10/29 10:22:04;;;;;;;6.60;1.70;;;15.30;99.90;;;;;;5083451;28;20047;-31
2023/10/29 10:24:38;;;;;;;3.20;1.40;;;15.20;99.90;;;;;;5084769;28;20044;-30
2023/10/29 10:27:05;;;;;;;7.80;1.98;;;15.20;99.90;;;;;;5070658;28;20036;-31
2023/10/29 10:29:31;;;;;;;7.72;1.73;;;15.50;99.90;;;;;;5087735;28;20040;-33
2023/10/29 10:32:05;;;;;;;5.55;1.58;;;15.70;99.90;;;;;;5083932;28;20137;-32
2023/10/29 10:34:34;;;;;;;9.07;1.90;;;15.80;99.90;;;;;;5070875;28;20036;-32
2023/10/29 10:37:04;;;;;;;7.35;1.90;;;15.90;99.90;;;;;;5062839;28;20048;-32
2023/10/29 10:39:31;;;;;;;7.43;1.80;;;15.90;99.90;;;;;;5076924;28;20055;-31
2023/10/29 10:42:00;;;;;;;7.88;1.88;;;15.90;99.90;;;;;;5079559;28;20412;-32
2023/10/29 10:44:29;;;;;;;5.75;2.00;;;16.00;99.90;;;;;;5063820;28;20032;-31
2023/10/29 10:46:59;;;;;;;5.45;1.48;;;16.00;99.90;;;;;;5066158;28;20125;-32
2023/10/29 10:49:26;;;;;;;7.68;2.28;;;16.10;99.90;;;;;;5079934;28;20491;-34
2023/10/29 10:51:56;;;;;;;5.40;1.83;;;16.20;99.90;;;;;;5063702;28;20037;-32
2023/10/29 10:54:22;;;;;;;4.50;1.85;;;16.20;99.90;;;;;;5075496;28;20046;-32
2023/10/29 10:56:50;;;;;;;5.68;1.73;;;16.20;99.90;;;;;;5079862;28;20078;-31
2023/10/29 10:59:16;;;;;;;9.02;1.92;;;16.10;99.90;;;;;;5057745;28;20040;-31
2023/10/29 11:01:42;;;;;;;7.10;2.13;;;16.00;99.90;;;;;;5061790;28;20055;-32
2023/10/29 11:04:10;;;;;;;10.55;1.80;;;15.90;99.90;;;;;;5063318;28;20423;-31
2023/10/29 11:06:36;;;;;;;5.07;1.92;;;15.80;99.90;;;;;;5077903;28;20049;-31
2023/10/29 11:09:05;;;;;;;6.47;1.65;;;15.70;99.90;;;;;;5058879;28;20395;-32
2023/10/29 11:11:46;;;;;;;4.63;1.60;;;15.70;99.90;;;;;;5062334;28;20473;-32
2023/10/29 11:14:17;;;;;;;6.35;1.55;;;15.60;99.90;;;;;;5074734;28;20465;-30
2023/10/29 11:16:51;;;;;;;6.25;1.48;;;15.50;99.90;;;;;;5077436;28;20119;-32
2023/10/29 11:19:35;;;;;;;5.95;1.70;;;15.60;99.90;;;;;;5081464;28;20044;-31
2023/10/29 11:22:21;;;;;;;5.38;1.20;;;15.60;99.90;;;;;;5077337;28;20036;-31
2023/10/29 11:25:07;;;;;;;4.18;1.52;;;15.70;99.90;;;;;;5059854;28;20063;-31
2023/10/29 11:27:34;;;;;;;5.45;1.42;;;15.70;99.90;;;;;;5078952;28;20082;-32
2023/10/29 11:30:17;;;;;;;6.60;1.52;;;15.70;99.90;;;;;;5083616;28;20047;-31
2023/10/29 11:32:45;;;;;;;4.55;1.27;;;15.80;99.90;;;;;;5082051;28;20057;-30
2023/10/29 11:35:14;;;;;;;2.72;1.25;;;15.90;99.90;;;;;;5063043;28;20037;-31
2023/10/29 11:37:40;;;;;;;4.75;1.60;;;16.10;99.90;;;;;;5079247;28;20048;-33
2023/10/29 11:40:29;;;;;;;7.60;1.75;;;16.40;99.90;;;;;;5080655;28;20040;-33
2023/10/29 11:42:59;;;;;;;8.07;1.52;;;16.50;99.90;;;;;;5080956;28;20044;-32
2023/10/29 11:45:28;;;;;;;5.18;1.35;;;16.60;99.90;;;;;;5078287;28;20074;-31
2023/10/29 11:48:14;;;;;;;5.55;1.17;;;16.60;99.90;;;;;;5072939;28;20044;-31
2023/10/29 11:50:42;;;;;;;2.50;1.20;;;16.60;99.90;;;;;;5087546;28;20525;-32
2023/10/29 11:53:25;;;;;;;3.58;1.17;;;16.60;99.90;;;;;;5085743;28;20466;-32
2023/10/29 11:55:57;;;;;;;5.88;1.40;;;16.40;99.90;;;;;;5078127;28;20395;-30
2023/10/29 11:58:23;;;;;;;4.55;1.40;;;16.30;99.90;;;;;;5061728;28;20048;-32
2023/10/29 12:00:49;;;;;;;7.57;1.90;;;16.20;99.90;;;;;;5084527;28;20075;-32
2023/10/29 12:03:20;;;;;;;3.17;1.02;;;16.10;99.90;;;;;;5077399;28;20032;-30
2023/10/29 12:05:53;;;;;;;6.68;1.45;;;16.00;99.90;;;;;;5083351;28;20070;-33
2023/10/29 12:08:19;;;;;;;8.30;1.38;;;15.90;99.90;;;;;;5079229;28;20075;-32
2023/10/29 12:10:46;;;;;;;3.75;1.20;;;15.80;99.90;;;;;;5079054;28;20032;-31
2023/10/29 12:13:12;;;;;;;4.82;1.23;;;15.70;99.90;;;;;;5070693;28;20044;-31
2023/10/29 12:15:39;;;;;;;4.97;1.35;;;15.70;99.90;;;;;;5063899;28;20040;-32
2023/10/29 12:18:05;;;;;;;5.78;1.35;;;15.60;99.90;;;;;;5075003;28;20088;-31
2023/10/29 12:20:31;;;;;;;4.97;1.25;;;15.50;99.90;;;;;;5062854;28;20059;-31
2023/10/29 12:22:58;;;;;;;6.45;1.40;;;15.50;99.90;;;;;;5071828;28;20538;-30
2023/10/29 12:25:29;;;;;;;7.30;1.50;;;15.40;99.90;;;;;;5057525;28;20040;-31
2023/10/29 12:27:56;;;;;;;4.93;1.77;;;15.40;99.90;;;;;;5058262;28;20127;-32
2023/10/29 12:30:34;;;;;;;8.80;2.10;;;15.30;99.90;;;;;;5078941;28;20182;-32
2023/10/29 12:33:20;;;;;;;3.67;1.52;;;15.30;99.90;;;;;;5085722;28;20039;-32
2023/10/29 12:35:50;;;;;;;3.50;1.30;;;15.20;99.90;;;;;;5062045;28;20059;-31
2023/10/29 12:38:18;;;;;;;5.40;1.35;;;15.20;99.90;;;;;;5061931;28;20052;-30
2023/10/29 12:41:13;;;;;;;8.18;1.70;;;15.20;99.90;;;;;;5075525;28;20503;-33
2023/10/29 12:43:47;;;;;;;5.68;1.77;;;15.20;99.90;;;;;;5074417;28;20044;-31
2023/10/29 12:46:14;;;;;;;4.70;1.48;;;15.10;99.90;;;;;;5080958;28;20518;-30
2023/10/29 12:48:58;;;;;;;8.25;1.58;;;15.10;99.90;;;;;;5078522;28;20495;-31